Flight Track Log - Related Links

Times and Time Zones

All times are in EDT time to prevent confusion due to time zone crossing. See the SWA243 flight status page for this flight to view local times or setup timezone preferences in your user account.


Time Position Orientation Groundspeed Altitude Reporting Facility
EDT Latitude Longitude Course Direction KTS MPH feet Rate Location/Type
Mon 12:28:29 PM 29.6372 -95.2864 162° South 147 169 500  Level Houston Center
Mon 12:29:18 PM 29.6089 -95.2756 162° South 160 184 2,000 1,674 Climbing Houston Center
Mon 12:29:55 PM 29.5942 -95.2389 115° Southeast 200 230 2,900 1,770 Climbing Houston Center
Mon 12:30:19 PM 29.5833 -95.2042 110° East 271 312 3,800 2,226 Climbing Houston Center
Mon 12:30:57 PM 29.5936 -95.1614 75° East 257 296 5,200 3,443 Climbing Houston Center
Mon 12:31:20 PM 29.6003 -95.1156 80° East 294 338 7,300 3,484 Climbing Houston Center
Mon 12:31:59 PM 29.6072 -95.0708 80° East 296 341 8,800 3,030 Climbing Houston Center
Mon 12:33:01 PM 29.6269 -94.9494 79° East 324 373 12,400 3,339 Climbing Houston Center
Mon 12:34:03 PM 29.6447 -94.8361 80° East 356 410 15,700 3,024 Climbing Houston Center
Mon 12:35:06 PM 29.6636 -94.7197 79° East 371 427 18,700 2,400 Climbing Houston Center
Mon 12:36:08 PM 29.6825 -94.5947 80° East 393 452 20,700 1,887 Climbing Houston Center
Mon 12:37:10 PM 29.7047 -94.4561 80° East 438 504 22,600 2,177 Climbing Houston Center
Mon 12:38:12 PM 29.7153 -94.2792 86° East 469 540 25,200 2,032 Climbing Houston Center
Mon 12:39:14 PM 29.6989 -94.1319 97° East 481 554 26,800 1,597 Climbing Houston Center
Mon 12:40:16 PM 29.6872 -93.9744 95° East 491 565 28,500 1,790 Climbing Houston Center
Mon 12:41:18 PM 29.6856 -93.8125 91° East 507 583 30,500 1,920 Climbing Houston Center
Mon 12:42:21 PM 29.6836 -93.6211 91° East 507 583 32,500 1,584 Climbing Houston Center
Mon 12:43:23 PM 29.6842 -93.4586 90° East 508 585 33,800 1,258 Climbing Houston Center
Mon 12:44:25 PM 29.7200 -93.3031 75° East 507 583 35,100 1,403 Climbing Houston Center
Mon 12:45:27 PM 29.7681 -93.1528 70° East 504 580 36,700 1,306 Climbing Houston Center
Mon 12:46:29 PM 29.8139 -93.0028 71° East 504 580 37,800 968 Climbing Houston Center
Mon 12:47:31 PM 29.8708 -92.8192 70° East 509 586 38,700 576 Climbing Houston Center
Mon 12:48:34 PM 29.9172 -92.6631 71° East 513 590 39,000 144 Climbing Houston Center
Mon 12:49:36 PM 29.9642 -92.5097 71° East 514 592 39,000  Level Houston Center
Mon 12:50:38 PM 30.0117 -92.3544 71° East 514 592 39,000  Level Houston Center
Mon 12:51:40 PM 30.0569 -92.2003 71° East 512 589 39,000  Level Houston Center
Mon 12:52:42 PM 30.1125 -92.0144 71° East 512 589 39,000  Level Houston Center
Mon 12:53:44 PM 30.1583 -91.8606 71° East 512 589 39,000  Level Houston Center
Mon 12:54:47 PM 30.2072 -91.6967 71° East 512 589 39,000  Level Houston Center
Mon 12:55:49 PM 30.2514 -91.5417 72° East 512 589 39,000  Level Houston Center
Mon 12:56:51 PM 30.2972 -91.3858 71° East 512 589 39,000  Level Houston Center
Mon 12:57:53 PM 30.3417 -91.2283 72° East 513 590 39,000  Level Houston Center
Mon 12:58:55 PM 30.3878 -91.0719 71° East 512 589 39,000  Level Houston Center
Mon 12:59:57 PM 30.4417 -90.8839 72° East 513 590 39,000  Level Houston Center
Mon 01:01:00 PM 30.4864 -90.7289 71° East 512 589 39,000  Level Houston Center
Mon 01:02:02 PM 30.5325 -90.5742 71° East 509 586 39,000  Level Houston Center
Mon 01:03:04 PM 30.5869 -90.4272 67° East 498 573 39,000  Level Houston Center
Mon 01:04:06 PM 30.6414 -90.2778 67° East 498 573 39,000  Level Houston Center
Mon 01:05:08 PM 30.6944 -90.1286 67° East 498 573 39,000  Level Houston Center
Mon 01:06:10 PM 30.7589 -89.9478 67° East 499 574 39,000  Level Houston Center
Mon 01:07:13 PM 30.8119 -89.7975 68° East 499 574 39,000  Level Houston Center
Mon 01:08:15 PM 30.8656 -89.6467 67° East 499 574 39,000  Level Houston Center
Mon 01:09:17 PM 30.9189 -89.4975 67° East 499 574 39,000  Level Houston Center
Mon 01:10:19 PM 30.9703 -89.3486 68° East 499 574 39,000 242 Level Houston Center
Mon 01:11:21 PM 31.0197 -89.1992 69° East 494 568 39,500 629 Climbing Houston Center
Mon 01:12:23 PM 31.0717 -89.0525 68° East 492 566 40,300 720 Climbing Houston Center
Mon 01:13:26 PM 31.1281 -88.8908 68° East 492 566 41,000 336 Climbing Houston Center
Mon 01:14:28 PM 31.1783 -88.7433 68° East 489 563 41,000  Level Houston Center
Mon 01:15:30 PM 31.2344 -88.5822 68° East 488 562 41,000  Level Houston Center
Mon 01:16:32 PM 31.2900 -88.4175 68° East 489 563 41,000  Level Houston Center
Mon 01:17:34 PM 31.3403 -88.2681 68° East 489 563 41,000  Level Houston Center
Mon 01:18:37 PM 31.4139 -88.1392 56° Northeast 474 545 41,000  Level Houston Center
Mon 01:19:39 PM 31.4881 -88.0100 56° Northeast 473 544 41,000 -435 Level Houston Center
Mon 01:20:41 PM 31.5619 -87.8825 56° Northeast 473 544 40,100 -1,258 Descending Houston Center
Mon 01:21:43 PM 31.6342 -87.7561 56° Northeast 471 542 38,400 -1,790 Descending Houston Center
Mon 01:22:45 PM 31.7056 -87.6319 56° Northeast 465 535 36,400 -2,048 Descending Houston Center
Mon 01:23:49 PM 31.8011 -87.4769 54° Northeast 470 541 34,100 -1,645 Descending Atlanta Center
Mon 01:24:49 PM 31.8733 -87.3478 57° Northeast 470 541 33,000 -1,000 Descending Atlanta Center
Mon 01:25:49 PM 31.9372 -87.2275 58° Northeast 470 541 32,100 -950 Descending Atlanta Center
Mon 01:26:49 PM 32.0092 -87.1006 56° Northeast 470 541 31,100 -1,000 Descending Atlanta Center
Mon 01:27:49 PM 32.0792 -86.9728 57° Northeast 470 541 30,100 -950 Descending Atlanta Center
Mon 01:28:49 PM 32.1508 -86.8478 56° Northeast 470 541 29,200 -550 Descending Atlanta Center
Mon 01:29:49 PM 32.2353 -86.7081 54° Northeast 470 541 29,000 -100 Descending Atlanta Center
Mon 01:30:49 PM 32.3050 -86.5797 57° Northeast 464 534 29,000  Level Atlanta Center
Mon 01:31:49 PM 32.3764 -86.4539 56° Northeast 458 527 29,000  Level Atlanta Center
Mon 01:32:49 PM 32.4328 -86.3375 60° Northeast 453 521 29,000  Level Atlanta Center
Mon 01:33:49 PM 32.5125 -86.1967 56° Northeast 458 527 29,000  Level Atlanta Center
Mon 01:34:49 PM 32.5836 -86.0678 57° Northeast 470 541 29,000  Level Atlanta Center
Mon 01:35:49 PM 32.6544 -85.9386 57° Northeast 470 541 29,000  Level Atlanta Center
Mon 01:36:49 PM 32.7317 -85.8117 54° Northeast 470 541 29,000  Level Atlanta Center
Mon 01:37:49 PM 32.8086 -85.6750 56° Northeast 482 555 29,000 -1,150 Level Atlanta Center
Mon 01:38:49 PM 32.8875 -85.5453 54° Northeast 482 555 26,700 -2,700 Descending Atlanta Center
Mon 01:39:49 PM 32.9622 -85.4153 56° Northeast 482 555 23,600 -3,100 Descending Atlanta Center
Mon 01:40:49 PM 33.0364 -85.2878 55° Northeast 482 555 20,500 -2,900 Descending Atlanta Center
Mon 01:41:49 PM 33.1000 -85.1844 54° Northeast 456 525 17,800 -2,516 Descending Atlanta Center
Mon 01:43:24 PM 33.2167 -84.9833 55° Northeast 404 465 14,000 -2,245 Descending Atlanta TRACON
Mon 01:44:24 PM 33.2833 -84.9000 46° Northeast 402 463 12,000 -1,500 Descending Atlanta TRACON
Mon 01:45:24 PM 33.3667 -84.8000 45° Northeast 386 444 11,000 -500 Descending Atlanta TRACON
Mon 01:46:24 PM 33.4333 -84.7000 51° Northeast 384 442 11,000  Level Atlanta TRACON
Mon 01:47:24 PM 33.5000 -84.6167 46° Northeast 361 415 11,000 -100 Level Atlanta TRACON
Mon 01:48:24 PM 33.5333 -84.5167 68° East 305 351 10,800 -1,100 Descending Atlanta TRACON
Mon 01:49:24 PM 33.5333 -84.4167 90° East 286 329 8,800 -2,200 Descending Atlanta TRACON
Mon 01:50:24 PM 33.5333 -84.3333 90° East 257 296 6,400 -2,500 Descending Atlanta TRACON
Mon 01:51:24 PM 33.5500 -84.2667 73° East 252 290 3,800 -1,700 Descending Atlanta TRACON
Mon 01:52:24 PM 33.6000 -84.2833 344° North 196 226 3,000 -650 Descending Atlanta TRACON
Mon 01:53:24 PM 33.6167 -84.3333 292° West 185 213 2,500 -800 Descending Atlanta TRACON
Mon 01:54:24 PM 33.6167 -84.4000 270° West 152 175 1,400 -1,100 Descending Atlanta TRACON
Mon 01:56:00 PM 33.6333 -84.4167 316° Northwest  Level FlightAware Approximate
Mon 02:03:00 PM 33.6367 -84.4279 316° Northwest  Level Estimated

Login

Don't have an account? Register now (free) for customized features, flight alerts, and more!